sensor_id;sensor_type;location;lat;lon;timestamp;temperature;humidity
76099;DHT22;64828;49.956;8.636;2023-04-25T00:00:07;7.50;90.80
76099;DHT22;64828;49.956;8.636;2023-04-25T00:00:24;7.50;90.80
76099;DHT22;64828;49.956;8.636;2023-04-25T00:00:40;7.50;90.80
76099;DHT22;64828;49.956;8.636;2023-04-25T00:00:55;7.50;90.70
76099;DHT22;64828;49.956;8.636;2023-04-25T00:01:11;7.50;90.60
76099;DHT22;64828;49.956;8.636;2023-04-25T00:01:28;7.50;90.70
76099;DHT22;64828;49.956;8.636;2023-04-25T00:01:43;7.50;90.70
76099;DHT22;64828;49.956;8.636;2023-04-25T00:01:59;7.50;90.70
76099;DHT22;64828;49.956;8.636;2023-04-25T00:02:15;7.50;90.70
76099;DHT22;64828;49.956;8.636;2023-04-25T00:02:30;7.50;90.70
76099;DHT22;64828;49.956;8.636;2023-04-25T00:02:47;7.50;90.70
76099;DHT22;64828;49.956;8.636;2023-04-25T00:03:03;7.50;90.60
76099;DHT22;64828;49.956;8.636;2023-04-25T00:03:20;7.50;90.60
76099;DHT22;64828;49.956;8.636;2023-04-25T00:03:36;7.50;90.60
76099;DHT22;64828;49.956;8.636;2023-04-25T00:03:53;7.50;90.60
76099;DHT22;64828;49.956;8.636;2023-04-25T00:04:08;7.50;90.60
76099;DHT22;64828;49.956;8.636;2023-04-25T00:04:24;7.50;90.60
76099;DHT22;64828;49.956;8.636;2023-04-25T00:04:42;7.50;90.50
76099;DHT22;64828;49.956;8.636;2023-04-25T00:04:58;7.50;90.50
76099;DHT22;64828;49.956;8.636;2023-04-25T00:05:14;7.50;90.50
76099;DHT22;64828;49.956;8.636;2023-04-25T00:05:31;7.50;90.60
76099;DHT22;64828;49.956;8.636;2023-04-25T00:05:47;7.50;90.60
76099;DHT22;64828;49.956;8.636;2023-04-25T00:06:03;7.50;90.60
76099;DHT22;64828;49.956;8.636;2023-04-25T00:06:18;7.50;90.50
76099;DHT22;64828;49.956;8.636;2023-04-25T00:06:35;7.50;90.50
76099;DHT22;64828;49.956;8.636;2023-04-25T00:06:51;7.50;90.60
76099;DHT22;64828;49.956;8.636;2023-04-25T00:07:07;7.50;90.60
76099;DHT22;64828;49.956;8.636;2023-04-25T00:07:24;7.50;90.50
76099;DHT22;64828;49.956;8.636;2023-04-25T00:07:40;7.50;90.50
76099;DHT22;64828;49.956;8.636;2023-04-25T00:07:58;7.50;90.50
76099;DHT22;64828;49.956;8.636;2023-04-25T00:08:13;7.50;90.50
76099;DHT22;64828;49.956;8.636;2023-04-25T00:08:29;7.50;90.50
76099;DHT22;64828;49.956;8.636;2023-04-25T00:08:45;7.50;90.50
76099;DHT22;64828;49.956;8.636;2023-04-25T00:09:05;7.50;90.50
76099;DHT22;64828;49.956;8.636;2023-04-25T00:09:27;7.50;90.60
76099;DHT22;64828;49.956;8.636;2023-04-25T00:09:43;7.50;90.60
76099;DHT22;64828;49.956;8.636;2023-04-25T00:10:00;7.40;90.60
76099;DHT22;64828;49.956;8.636;2023-04-25T00:10:16;7.50;90.50
76099;DHT22;64828;49.956;8.636;2023-04-25T00:10:31;7.50;90.60
76099;DHT22;64828;49.956;8.636;2023-04-25T00:10:47;7.50;90.50
76099;DHT22;64828;49.956;8.636;2023-04-25T00:11:13;7.50;90.60
76099;DHT22;64828;49.956;8.636;2023-04-25T00:11:29;7.50;90.60
76099;DHT22;64828;49.956;8.636;2023-04-25T00:11:46;7.50;90.60
76099;DHT22;64828;49.956;8.636;2023-04-25T00:12:01;7.50;90.60
76099;DHT22;64828;49.956;8.636;2023-04-25T00:12:17;7.50;90.70
76099;DHT22;64828;49.956;8.636;2023-04-25T00:12:33;7.50;90.70
76099;DHT22;64828;49.956;8.636;2023-04-25T00:12:48;7.50;90.70
76099;DHT22;64828;49.956;8.636;2023-04-25T00:13:04;7.50;90.80
76099;DHT22;64828;49.956;8.636;2023-04-25T00:13:20;7.50;90.80
76099;DHT22;64828;49.956;8.636;2023-04-25T00:13:36;7.50;90.80
76099;DHT22;64828;49.956;8.636;2023-04-25T00:13:52;7.50;90.80
76099;DHT22;64828;49.956;8.636;2023-04-25T00:14:07;7.50;90.80
76099;DHT22;64828;49.956;8.636;2023-04-25T00:14:23;7.50;90.80
76099;DHT22;64828;49.956;8.636;2023-04-25T00:14:39;7.40;90.70
76099;DHT22;64828;49.956;8.636;2023-04-25T00:14:55;7.50;90.70
76099;DHT22;64828;49.956;8.636;2023-04-25T00:15:12;7.50;90.60
76099;DHT22;64828;49.956;8.636;2023-04-25T00:15:28;7.50;90.70
76099;DHT22;64828;49.956;8.636;2023-04-25T00:15:45;7.50;90.70
76099;DHT22;64828;49.956;8.636;2023-04-25T00:16:03;7.50;90.80
76099;DHT22;64828;49.956;8.636;2023-04-25T00:16:19;7.50;90.80
76099;DHT22;64828;49.956;8.636;2023-04-25T00:16:35;7.40;90.70
76099;DHT22;64828;49.956;8.636;2023-04-25T00:16:50;7.50;90.60
76099;DHT22;64828;49.956;8.636;2023-04-25T00:17:07;7.50;90.70
76099;DHT22;64828;49.956;8.636;2023-04-25T00:17:23;7.50;90.80
76099;DHT22;64828;49.956;8.636;2023-04-25T00:17:40;7.40;90.70
76099;DHT22;64828;49.956;8.636;2023-04-25T00:17:56;7.50;90.60
76099;DHT22;64828;49.956;8.636;2023-04-25T00:18:12;7.40;90.50
76099;DHT22;64828;49.956;8.636;2023-04-25T00:18:27;7.40;90.40
76099;DHT22;64828;49.956;8.636;2023-04-25T00:18:48;7.50;90.50
76099;DHT22;64828;49.956;8.636;2023-04-25T00:19:06;7.50;90.60
76099;DHT22;64828;49.956;8.636;2023-04-25T00:19:22;7.40;90.60
76099;DHT22;64828;49.956;8.636;2023-04-25T00:19:38;7.50;90.60
76099;DHT22;64828;49.956;8.636;2023-04-25T00:19:53;7.40;90.70
76099;DHT22;64828;49.956;8.636;2023-04-25T00:20:10;7.50;90.70
76099;DHT22;64828;49.956;8.636;2023-04-25T00:20:26;7.40;90.70
76099;DHT22;64828;49.956;8.636;2023-04-25T00:20:41;7.50;90.80
76099;DHT22;64828;49.956;8.636;2023-04-25T00:21:01;7.50;90.80
76099;DHT22;64828;49.956;8.636;2023-04-25T00:21:18;7.50;90.90
76099;DHT22;64828;49.956;8.636;2023-04-25T00:21:35;7.50;90.90
76099;DHT22;64828;49.956;8.636;2023-04-25T00:21:52;7.50;90.90
76099;DHT22;64828;49.956;8.636;2023-04-25T00:22:08;7.50;91.00
76099;DHT22;64828;49.956;8.636;2023-04-25T00:22:24;7.50;91.00
76099;DHT22;64828;49.956;8.636;2023-04-25T00:22:39;7.50;91.00
76099;DHT22;64828;49.956;8.636;2023-04-25T00:22:55;7.50;91.00
76099;DHT22;64828;49.956;8.636;2023-04-25T00:23:11;7.50;91.00
76099;DHT22;64828;49.956;8.636;2023-04-25T00:23:26;7.50;91.00
76099;DHT22;64828;49.956;8.636;2023-04-25T00:23:42;7.50;91.10
76099;DHT22;64828;49.956;8.636;2023-04-25T00:23:57;7.50;91.10
76099;DHT22;64828;49.956;8.636;2023-04-25T00:24:13;7.50;91.10
76099;DHT22;64828;49.956;8.636;2023-04-25T00:24:29;7.50;91.00
76099;DHT22;64828;49.956;8.636;2023-04-25T00:24:45;7.50;91.10
76099;DHT22;64828;49.956;8.636;2023-04-25T00:25:00;7.50;91.10
76099;DHT22;64828;49.956;8.636;2023-04-25T00:25:16;7.50;91.10
76099;DHT22;64828;49.956;8.636;2023-04-25T00:25:31;7.50;91.10
76099;DHT22;64828;49.956;8.636;2023-04-25T00:25:48;7.50;91.10
76099;DHT22;64828;49.956;8.636;2023-04-25T00:26:05;7.50;91.10
76099;DHT22;64828;49.956;8.636;2023-04-25T00:26:20;7.50;91.10
76099;DHT22;64828;49.956;8.636;2023-04-25T00:26:36;7.50;91.00
76099;DHT22;64828;49.956;8.636;2023-04-25T00:26:52;7.50;91.10
76099;DHT22;64828;49.956;8.636;2023-04-25T00:27:07;7.50;91.10
76099;DHT22;64828;49.956;8.636;2023-04-25T00:27:23;7.50;91.20
76099;DHT22;64828;49.956;8.636;2023-04-25T00:27:38;7.50;91.10
76099;DHT22;64828;49.956;8.636;2023-04-25T00:27:54;7.50;91.10
76099;DHT22;64828;49.956;8.636;2023-04-25T00:28:11;7.50;91.10
76099;DHT22;64828;49.956;8.636;2023-04-25T00:28:27;7.50;91.10
76099;DHT22;64828;49.956;8.636;2023-04-25T00:28:43;7.50;91.10
76099;DHT22;64828;49.956;8.636;2023-04-25T00:28:58;7.50;91.10
76099;DHT22;64828;49.956;8.636;2023-04-25T00:29:14;7.50;91.10
76099;DHT22;64828;49.956;8.636;2023-04-25T00:29:30;7.50;91.10
76099;DHT22;64828;49.956;8.636;2023-04-25T00:29:45;7.50;91.10
76099;DHT22;64828;49.956;8.636;2023-04-25T00:30:01;7.50;91.10
76099;DHT22;64828;49.956;8.636;2023-04-25T00:30:17;7.50;91.10
76099;DHT22;64828;49.956;8.636;2023-04-25T00:30:33;7.50;91.10
76099;DHT22;64828;49.956;8.636;2023-04-25T00:30:49;7.50;91.20
76099;DHT22;64828;49.956;8.636;2023-04-25T00:31:05;7.50;91.20
76099;DHT22;64828;49.956;8.636;2023-04-25T00:31:20;7.50;91.20
76099;DHT22;64828;49.956;8.636;2023-04-25T00:31:36;7.50;91.20
76099;DHT22;64828;49.956;8.636;2023-04-25T00:31:51;7.50;91.20
76099;DHT22;64828;49.956;8.636;2023-04-25T00:32:07;7.50;91.20
76099;DHT22;64828;49.956;8.636;2023-04-25T00:32:23;7.50;91.20
76099;DHT22;64828;49.956;8.636;2023-04-25T00:32:38;7.50;91.10
76099;DHT22;64828;49.956;8.636;2023-04-25T00:32:54;7.50;91.10
76099;DHT22;64828;49.956;8.636;2023-04-25T00:33:10;7.50;91.10
76099;DHT22;64828;49.956;8.636;2023-04-25T00:33:25;7.50;91.10
76099;DHT22;64828;49.956;8.636;2023-04-25T00:33:41;7.50;91.20
76099;DHT22;64828;49.956;8.636;2023-04-25T00:33:57;7.50;91.20
76099;DHT22;64828;49.956;8.636;2023-04-25T00:34:12;7.50;91.20
76099;DHT22;64828;49.956;8.636;2023-04-25T00:34:28;7.50;91.30
76099;DHT22;64828;49.956;8.636;2023-04-25T00:34:43;7.50;91.30
76099;DHT22;64828;49.956;8.636;2023-04-25T00:34:59;7.50;91.30
76099;DHT22;64828;49.956;8.636;2023-04-25T00:35:14;7.50;91.30
76099;DHT22;64828;49.956;8.636;2023-04-25T00:35:30;7.50;91.20
76099;DHT22;64828;49.956;8.636;2023-04-25T00:35:46;7.50;91.20
76099;DHT22;64828;49.956;8.636;2023-04-25T00:36:02;7.50;91.20
76099;DHT22;64828;49.956;8.636;2023-04-25T00:36:18;7.50;91.30
76099;DHT22;64828;49.956;8.636;2023-04-25T00:36:34;7.50;91.20
76099;DHT22;64828;49.956;8.636;2023-04-25T00:36:49;7.50;91.20
76099;DHT22;64828;49.956;8.636;2023-04-25T00:37:05;7.50;91.20
76099;DHT22;64828;49.956;8.636;2023-04-25T00:37:21;7.50;91.10
76099;DHT22;64828;49.956;8.636;2023-04-25T00:37:37;7.50;91.10
76099;DHT22;64828;49.956;8.636;2023-04-25T00:37:54;7.50;91.00
76099;DHT22;64828;49.956;8.636;2023-04-25T00:38:10;7.50;91.00
76099;DHT22;64828;49.956;8.636;2023-04-25T00:38:25;7.50;91.00
76099;DHT22;64828;49.956;8.636;2023-04-25T00:38:41;7.50;91.00
76099;DHT22;64828;49.956;8.636;2023-04-25T00:38:56;7.50;91.00
76099;DHT22;64828;49.956;8.636;2023-04-25T00:39:12;7.50;91.00
76099;DHT22;64828;49.956;8.636;2023-04-25T00:39:28;7.50;90.80
76099;DHT22;64828;49.956;8.636;2023-04-25T00:39:43;7.50;90.80
76099;DHT22;64828;49.956;8.636;2023-04-25T00:39:59;7.50;90.80
76099;DHT22;64828;49.956;8.636;2023-04-25T00:40:15;7.50;90.90
76099;DHT22;64828;49.956;8.636;2023-04-25T00:40:30;7.50;90.90
76099;DHT22;64828;49.956;8.636;2023-04-25T00:40:46;7.50;90.90
76099;DHT22;64828;49.956;8.636;2023-04-25T00:41:02;7.50;90.90
76099;DHT22;64828;49.956;8.636;2023-04-25T00:41:18;7.50;90.90
76099;DHT22;64828;49.956;8.636;2023-04-25T00:41:34;7.50;90.90
76099;DHT22;64828;49.956;8.636;2023-04-25T00:41:51;7.50;90.90
76099;DHT22;64828;49.956;8.636;2023-04-25T00:42:10;7.50;91.00
76099;DHT22;64828;49.956;8.636;2023-04-25T00:42:27;7.50;91.10
76099;DHT22;64828;49.956;8.636;2023-04-25T00:42:44;7.50;91.20
76099;DHT22;64828;49.956;8.636;2023-04-25T00:43:01;7.50;91.20
76099;DHT22;64828;49.956;8.636;2023-04-25T00:43:17;7.50;91.20
76099;DHT22;64828;49.956;8.636;2023-04-25T00:43:32;7.50;91.20
76099;DHT22;64828;49.956;8.636;2023-04-25T00:43:49;7.50;91.30
76099;DHT22;64828;49.956;8.636;2023-04-25T00:44:08;7.50;91.30
76099;DHT22;64828;49.956;8.636;2023-04-25T00:44:27;7.50;91.20
76099;DHT22;64828;49.956;8.636;2023-04-25T00:44:45;7.50;91.20
76099;DHT22;64828;49.956;8.636;2023-04-25T00:45:00;7.50;91.10
76099;DHT22;64828;49.956;8.636;2023-04-25T00:45:17;7.50;91.00
76099;DHT22;64828;49.956;8.636;2023-04-25T00:45:36;7.50;91.10
76099;DHT22;64828;49.956;8.636;2023-04-25T00:45:53;7.50;91.00
76099;DHT22;64828;49.956;8.636;2023-04-25T00:46:09;7.50;91.10
76099;DHT22;64828;49.956;8.636;2023-04-25T00:46:25;7.50;91.20
76099;DHT22;64828;49.956;8.636;2023-04-25T00:46:40;7.50;91.20
76099;DHT22;64828;49.956;8.636;2023-04-25T00:46:57;7.50;91.20
76099;DHT22;64828;49.956;8.636;2023-04-25T00:47:13;7.50;91.10
76099;DHT22;64828;49.956;8.636;2023-04-25T00:47:29;7.50;91.10
76099;DHT22;64828;49.956;8.636;2023-04-25T00:47:46;7.50;91.10
76099;DHT22;64828;49.956;8.636;2023-04-25T00:48:04;7.50;91.10
76099;DHT22;64828;49.956;8.636;2023-04-25T00:48:22;7.50;91.20
76099;DHT22;64828;49.956;8.636;2023-04-25T00:48:38;7.50;91.10
76099;DHT22;64828;49.956;8.636;2023-04-25T00:48:53;7.50;91.10
76099;DHT22;64828;49.956;8.636;2023-04-25T00:49:09;7.50;91.20
76099;DHT22;64828;49.956;8.636;2023-04-25T00:49:30;7.50;91.20
76099;DHT22;64828;49.956;8.636;2023-04-25T00:49:46;7.50;91.30
76099;DHT22;64828;49.956;8.636;2023-04-25T00:50:01;7.60;91.30
76099;DHT22;64828;49.956;8.636;2023-04-25T00:50:17;7.50;91.30
76099;DHT22;64828;49.956;8.636;2023-04-25T00:50:33;7.50;91.30
76099;DHT22;64828;49.956;8.636;2023-04-25T00:50:55;7.50;91.40
76099;DHT22;64828;49.956;8.636;2023-04-25T00:51:20;7.50;91.40
76099;DHT22;64828;49.956;8.636;2023-04-25T00:51:36;7.50;91.30
76099;DHT22;64828;49.956;8.636;2023-04-25T00:51:52;7.50;91.20
76099;DHT22;64828;49.956;8.636;2023-04-25T00:52:08;7.50;91.20
76099;DHT22;64828;49.956;8.636;2023-04-25T00:52:23;7.50;91.20
76099;DHT22;64828;49.956;8.636;2023-04-25T00:52:41;7.50;91.10
76099;DHT22;64828;49.956;8.636;2023-04-25T00:52:59;7.50;91.10
76099;DHT22;64828;49.956;8.636;2023-04-25T00:53:15;7.50;91.10
76099;DHT22;64828;49.956;8.636;2023-04-25T00:53:31;7.50;91.10
76099;DHT22;64828;49.956;8.636;2023-04-25T00:53:48;7.50;91.10
76099;DHT22;64828;49.956;8.636;2023-04-25T00:54:05;7.50;91.10
76099;DHT22;64828;49.956;8.636;2023-04-25T00:54:21;7.50;91.10
76099;DHT22;64828;49.956;8.636;2023-04-25T00:54:37;7.50;91.10
76099;DHT22;64828;49.956;8.636;2023-04-25T00:54:53;7.50;91.20
76099;DHT22;64828;49.956;8.636;2023-04-25T00:55:10;7.50;91.20
76099;DHT22;64828;49.956;8.636;2023-04-25T00:55:27;7.50;91.20
76099;DHT22;64828;49.956;8.636;2023-04-25T00:55:43;7.50;91.20
76099;DHT22;64828;49.956;8.636;2023-04-25T00:55:59;7.50;91.30
76099;DHT22;64828;49.956;8.636;2023-04-25T00:56:15;7.60;91.30
76099;DHT22;64828;49.956;8.636;2023-04-25T00:56:31;7.50;91.30
76099;DHT22;64828;49.956;8.636;2023-04-25T00:56:47;7.50;91.30
76099;DHT22;64828;49.956;8.636;2023-04-25T00:57:03;7.50;91.20
76099;DHT22;64828;49.956;8.636;2023-04-25T00:57:18;7.60;91.20
76099;DHT22;64828;49.956;8.636;2023-04-25T00:57:34;7.50;91.20
76099;DHT22;64828;49.956;8.636;2023-04-25T00:57:50;7.50;91.20
76099;DHT22;64828;49.956;8.636;2023-04-25T00:58:06;7.50;91.20
76099;DHT22;64828;49.956;8.636;2023-04-25T00:58:22;7.50;91.10
76099;DHT22;64828;49.956;8.636;2023-04-25T00:58:38;7.50;91.10
76099;DHT22;64828;49.956;8.636;2023-04-25T00:58:56;7.50;91.10
76099;DHT22;64828;49.956;8.636;2023-04-25T00:59:13;7.50;91.10
76099;DHT22;64828;49.956;8.636;2023-04-25T00:59:28;7.50;91.10
76099;DHT22;64828;49.956;8.636;2023-04-25T00:59:46;7.50;91.00
76099;DHT22;64828;49.956;8.636;2023-04-25T01:00:03;7.50;90.90
76099;DHT22;64828;49.956;8.636;2023-04-25T01:00:21;7.50;90.90
76099;DHT22;64828;49.956;8.636;2023-04-25T01:00:37;7.50;90.90
76099;DHT22;64828;49.956;8.636;2023-04-25T01:00:52;7.60;91.10
76099;DHT22;64828;49.956;8.636;2023-04-25T01:01:08;7.50;91.10
76099;DHT22;64828;49.956;8.636;2023-04-25T01:01:25;7.50;91.10
76099;DHT22;64828;49.956;8.636;2023-04-25T01:01:42;7.50;91.10
76099;DHT22;64828;49.956;8.636;2023-04-25T01:01:59;7.60;91.10
76099;DHT22;64828;49.956;8.636;2023-04-25T01:02:15;7.50;91.10
76099;DHT22;64828;49.956;8.636;2023-04-25T01:02:32;7.50;91.10
76099;DHT22;64828;49.956;8.636;2023-04-25T01:02:49;7.50;91.20
76099;DHT22;64828;49.956;8.636;2023-04-25T01:03:05;7.50;91.20
76099;DHT22;64828;49.956;8.636;2023-04-25T01:03:21;7.50;91.20
76099;DHT22;64828;49.956;8.636;2023-04-25T01:03:38;7.50;91.30
76099;DHT22;64828;49.956;8.636;2023-04-25T01:03:56;7.60;91.40
76099;DHT22;64828;49.956;8.636;2023-04-25T01:04:13;7.50;91.40
76099;DHT22;64828;49.956;8.636;2023-04-25T01:04:29;7.60;91.40
76099;DHT22;64828;49.956;8.636;2023-04-25T01:04:45;7.60;91.40
76099;DHT22;64828;49.956;8.636;2023-04-25T01:05:01;7.60;91.40
76099;DHT22;64828;49.956;8.636;2023-04-25T01:05:17;7.50;91.30
76099;DHT22;64828;49.956;8.636;2023-04-25T01:05:34;7.50;91.20
76099;DHT22;64828;49.956;8.636;2023-04-25T01:05:50;7.50;91.20
76099;DHT22;64828;49.956;8.636;2023-04-25T01:06:12;7.50;91.10
76099;DHT22;64828;49.956;8.636;2023-04-25T01:06:28;7.50;91.10
76099;DHT22;64828;49.956;8.636;2023-04-25T01:06:43;7.50;91.20
76099;DHT22;64828;49.956;8.636;2023-04-25T01:07:00;7.50;91.10
76099;DHT22;64828;49.956;8.636;2023-04-25T01:07:17;7.50;91.10
76099;DHT22;64828;49.956;8.636;2023-04-25T01:07:33;7.50;91.20
76099;DHT22;64828;49.956;8.636;2023-04-25T01:07:49;7.50;91.10
76099;DHT22;64828;49.956;8.636;2023-04-25T01:08:05;7.50;91.10
76099;DHT22;64828;49.956;8.636;2023-04-25T01:08:23;7.50;91.10
76099;DHT22;64828;49.956;8.636;2023-04-25T01:08:42;7.50;91.10
76099;DHT22;64828;49.956;8.636;2023-04-25T01:08:59;7.50;91.10
76099;DHT22;64828;49.956;8.636;2023-04-25T01:09:15;7.50;91.10
76099;DHT22;64828;49.956;8.636;2023-04-25T01:09:31;7.50;91.10
76099;DHT22;64828;49.956;8.636;2023-04-25T01:09:51;7.50;91.20
76099;DHT22;64828;49.956;8.636;2023-04-25T01:10:08;7.50;91.20
76099;DHT22;64828;49.956;8.636;2023-04-25T01:10:24;7.50;91.20
76099;DHT22;64828;49.956;8.636;2023-04-25T01:10:39;7.50;91.20
76099;DHT22;64828;49.956;8.636;2023-04-25T01:10:55;7.50;91.30
76099;DHT22;64828;49.956;8.636;2023-04-25T01:11:11;7.50;91.20
76099;DHT22;64828;49.956;8.636;2023-04-25T01:11:26;7.50;91.20
76099;DHT22;64828;49.956;8.636;2023-04-25T01:11:42;7.50;91.20
76099;DHT22;64828;49.956;8.636;2023-04-25T01:11:57;7.50;91.20
76099;DHT22;64828;49.956;8.636;2023-04-25T01:12:13;7.50;91.20
76099;DHT22;64828;49.956;8.636;2023-04-25T01:12:29;7.50;91.20
76099;DHT22;64828;49.956;8.636;2023-04-25T01:12:46;7.50;91.30
76099;DHT22;64828;49.956;8.636;2023-04-25T01:13:03;7.50;91.30
76099;DHT22;64828;49.956;8.636;2023-04-25T01:13:19;7.50;91.20
76099;DHT22;64828;49.956;8.636;2023-04-25T01:13:35;7.50;91.20
76099;DHT22;64828;49.956;8.636;2023-04-25T01:13:51;7.50;91.20
76099;DHT22;64828;49.956;8.636;2023-04-25T01:14:07;7.50;91.20
76099;DHT22;64828;49.956;8.636;2023-04-25T01:14:22;7.50;91.20
76099;DHT22;64828;49.956;8.636;2023-04-25T01:14:39;7.50;91.20
76099;DHT22;64828;49.956;8.636;2023-04-25T01:14:55;7.50;91.20
76099;DHT22;64828;49.956;8.636;2023-04-25T01:15:10;7.50;91.30
76099;DHT22;64828;49.956;8.636;2023-04-25T01:15:26;7.50;91.30
76099;DHT22;64828;49.956;8.636;2023-04-25T01:15:42;7.50;91.30
76099;DHT22;64828;49.956;8.636;2023-04-25T01:15:58;7.50;91.30
76099;DHT22;64828;49.956;8.636;2023-04-25T01:16:15;7.50;91.20
76099;DHT22;64828;49.956;8.636;2023-04-25T01:16:32;7.50;91.20
76099;DHT22;64828;49.956;8.636;2023-04-25T01:16:48;7.50;91.20
76099;DHT22;64828;49.956;8.636;2023-04-25T01:17:04;7.50;91.30
76099;DHT22;64828;49.956;8.636;2023-04-25T01:17:20;7.50;91.30
76099;DHT22;64828;49.956;8.636;2023-04-25T01:17:36;7.50;91.20
76099;DHT22;64828;49.956;8.636;2023-04-25T01:17:53;7.50;91.20
76099;DHT22;64828;49.956;8.636;2023-04-25T01:18:10;7.50;91.10
76099;DHT22;64828;49.956;8.636;2023-04-25T01:18:27;7.50;91.20
76099;DHT22;64828;49.956;8.636;2023-04-25T01:18:42;7.50;91.20
76099;DHT22;64828;49.956;8.636;2023-04-25T01:19:00;7.50;91.30
76099;DHT22;64828;49.956;8.636;2023-04-25T01:19:16;7.50;91.30
76099;DHT22;64828;49.956;8.636;2023-04-25T01:19:33;7.50;91.30
76099;DHT22;64828;49.956;8.636;2023-04-25T01:19:49;7.50;91.30
76099;DHT22;64828;49.956;8.636;2023-04-25T01:20:07;7.50;91.30
76099;DHT22;64828;49.956;8.636;2023-04-25T01:20:25;7.50;91.20
76099;DHT22;64828;49.956;8.636;2023-04-25T01:20:41;7.50;91.30
76099;DHT22;64828;49.956;8.636;2023-04-25T01:21:07;7.50;91.30
76099;DHT22;64828;49.956;8.636;2023-04-25T01:21:25;7.50;91.40
76099;DHT22;64828;49.956;8.636;2023-04-25T01:21:43;7.50;91.40
76099;DHT22;64828;49.956;8.636;2023-04-25T01:21:59;7.50;91.40
76099;DHT22;64828;49.956;8.636;2023-04-25T01:22:15;7.50;91.40
76099;DHT22;64828;49.956;8.636;2023-04-25T01:22:32;7.50;91.40
76099;DHT22;64828;49.956;8.636;2023-04-25T01:22:48;7.60;91.40
76099;DHT22;64828;49.956;8.636;2023-04-25T01:23:04;7.50;91.40
76099;DHT22;64828;49.956;8.636;2023-04-25T01:23:21;7.50;91.40
76099;DHT22;64828;49.956;8.636;2023-04-25T01:23:39;7.50;91.40
76099;DHT22;64828;49.956;8.636;2023-04-25T01:23:55;7.50;91.40
76099;DHT22;64828;49.956;8.636;2023-04-25T01:24:12;7.50;91.30
76099;DHT22;64828;49.956;8.636;2023-04-25T01:24:28;7.50;91.30
76099;DHT22;64828;49.956;8.636;2023-04-25T01:24:45;7.50;91.40
76099;DHT22;64828;49.956;8.636;2023-04-25T01:25:00;7.50;91.40
76099;DHT22;64828;49.956;8.636;2023-04-25T01:25:17;7.50;91.40
76099;DHT22;64828;49.956;8.636;2023-04-25T01:25:34;7.50;91.40
76099;DHT22;64828;49.956;8.636;2023-04-25T01:25:50;7.50;91.50
76099;DHT22;64828;49.956;8.636;2023-04-25T01:26:10;7.50;91.40
76099;DHT22;64828;49.956;8.636;2023-04-25T01:26:26;7.50;91.40
76099;DHT22;64828;49.956;8.636;2023-04-25T01:26:43;7.50;91.40
76099;DHT22;64828;49.956;8.636;2023-04-25T01:27:04;7.50;91.30
76099;DHT22;64828;49.956;8.636;2023-04-25T01:27:21;7.50;91.40
76099;DHT22;64828;49.956;8.636;2023-04-25T01:27:38;7.50;91.40
76099;DHT22;64828;49.956;8.636;2023-04-25T01:27:55;7.50;91.50
76099;DHT22;64828;49.956;8.636;2023-04-25T01:28:11;7.50;91.50
76099;DHT22;64828;49.956;8.636;2023-04-25T01:28:28;7.50;91.50
76099;DHT22;64828;49.956;8.636;2023-04-25T01:28:44;7.60;91.60
76099;DHT22;64828;49.956;8.636;2023-04-25T01:29:00;7.60;91.60
76099;DHT22;64828;49.956;8.636;2023-04-25T01:29:21;7.60;91.70
76099;DHT22;64828;49.956;8.636;2023-04-25T01:29:36;7.60;91.60
76099;DHT22;64828;49.956;8.636;2023-04-25T01:29:54;7.50;91.60
76099;DHT22;64828;49.956;8.636;2023-04-25T01:30:11;7.50;91.60
76099;DHT22;64828;49.956;8.636;2023-04-25T01:30:27;7.60;91.60
76099;DHT22;64828;49.956;8.636;2023-04-25T01:30:44;7.50;91.60
76099;DHT22;64828;49.956;8.636;2023-04-25T01:31:01;7.50;91.50
76099;DHT22;64828;49.956;8.636;2023-04-25T01:31:17;7.50;91.40
76099;DHT22;64828;49.956;8.636;2023-04-25T01:31:34;7.50;91.40
76099;DHT22;64828;49.956;8.636;2023-04-25T01:31:51;7.50;91.40
76099;DHT22;64828;49.956;8.636;2023-04-25T01:32:08;7.50;91.30
76099;DHT22;64828;49.956;8.636;2023-04-25T01:32:25;7.50;91.30
76099;DHT22;64828;49.956;8.636;2023-04-25T01:32:42;7.50;91.30
76099;DHT22;64828;49.956;8.636;2023-04-25T01:32:59;7.50;91.40
76099;DHT22;64828;49.956;8.636;2023-04-25T01:33:16;7.50;91.30
76099;DHT22;64828;49.956;8.636;2023-04-25T01:33:32;7.50;91.30
76099;DHT22;64828;49.956;8.636;2023-04-25T01:33:48;7.50;91.30
76099;DHT22;64828;49.956;8.636;2023-04-25T01:34:03;7.50;91.30
76099;DHT22;64828;49.956;8.636;2023-04-25T01:34:19;7.50;91.30
76099;DHT22;64828;49.956;8.636;2023-04-25T01:34:35;7.50;91.30
76099;DHT22;64828;49.956;8.636;2023-04-25T01:34:51;7.50;91.30
76099;DHT22;64828;49.956;8.636;2023-04-25T01:35:09;7.50;91.30
76099;DHT22;64828;49.956;8.636;2023-04-25T01:35:26;7.50;91.40
76099;DHT22;64828;49.956;8.636;2023-04-25T01:35:41;7.50;91.50
76099;DHT22;64828;49.956;8.636;2023-04-25T01:35:57;7.50;91.50
76099;DHT22;64828;49.956;8.636;2023-04-25T01:36:13;7.50;91.50
76099;DHT22;64828;49.956;8.636;2023-04-25T01:36:30;7.50;91.50
76099;DHT22;64828;49.956;8.636;2023-04-25T01:36:49;7.50;91.60
76099;DHT22;64828;49.956;8.636;2023-04-25T01:37:05;7.50;91.60
76099;DHT22;64828;49.956;8.636;2023-04-25T01:37:21;7.50;91.60
76099;DHT22;64828;49.956;8.636;2023-04-25T01:37:41;7.50;91.60
76099;DHT22;64828;49.956;8.636;2023-04-25T01:37:57;7.50;91.60
76099;DHT22;64828;49.956;8.636;2023-04-25T01:38:14;7.50;91.60
76099;DHT22;64828;49.956;8.636;2023-04-25T01:38:29;7.50;91.60
76099;DHT22;64828;49.956;8.636;2023-04-25T01:38:45;7.50;91.60
76099;DHT22;64828;49.956;8.636;2023-04-25T01:39:02;7.50;91.60
76099;DHT22;64828;49.956;8.636;2023-04-25T01:39:19;7.50;91.70
76099;DHT22;64828;49.956;8.636;2023-04-25T01:39:35;7.50;91.70
76099;DHT22;64828;49.956;8.636;2023-04-25T01:39:51;7.50;91.70
76099;DHT22;64828;49.956;8.636;2023-04-25T01:40:12;7.50;91.70
76099;DHT22;64828;49.956;8.636;2023-04-25T01:40:28;7.50;91.60
76099;DHT22;64828;49.956;8.636;2023-04-25T01:40:45;7.50;91.60
76099;DHT22;64828;49.956;8.636;2023-04-25T01:41:01;7.50;91.60
76099;DHT22;64828;49.956;8.636;2023-04-25T01:41:17;7.50;91.60
76099;DHT22;64828;49.956;8.636;2023-04-25T01:41:33;7.50;91.60
76099;DHT22;64828;49.956;8.636;2023-04-25T01:41:51;7.50;91.60
76099;DHT22;64828;49.956;8.636;2023-04-25T01:42:07;7.50;91.60
76099;DHT22;64828;49.956;8.636;2023-04-25T01:42:23;7.50;91.60
76099;DHT22;64828;49.956;8.636;2023-04-25T01:42:41;7.50;91.60
76099;DHT22;64828;49.956;8.636;2023-04-25T01:42:58;7.50;91.70
76099;DHT22;64828;49.956;8.636;2023-04-25T01:43:13;7.50;91.70
76099;DHT22;64828;49.956;8.636;2023-04-25T01:43:29;7.50;91.70
76099;DHT22;64828;49.956;8.636;2023-04-25T01:43:45;7.50;91.70
76099;DHT22;64828;49.956;8.636;2023-04-25T01:44:01;7.50;91.70
76099;DHT22;64828;49.956;8.636;2023-04-25T01:44:17;7.50;91.70
76099;DHT22;64828;49.956;8.636;2023-04-25T01:44:33;7.50;91.80
76099;DHT22;64828;49.956;8.636;2023-04-25T01:44:49;7.50;91.80
76099;DHT22;64828;49.956;8.636;2023-04-25T01:45:05;7.50;91.80
76099;DHT22;64828;49.956;8.636;2023-04-25T01:45:22;7.50;91.90
76099;DHT22;64828;49.956;8.636;2023-04-25T01:45:38;7.50;91.90